Time;durP1;ratioP1;P1;durP2;ratioP2;P2;SDS_P1;SDS_P2;PMS_P1;PMS_P2;Temp;Humidity;BMP_temperature;BMP_pressure;BME280_temperature;BME280_humidity;BME280_pressure;Samples;Min_cycle;Max_cycle;Signal;HPM_P1;HPM_P2
2023/01/16 00:00:47;;;;;;;13.10;11.90;;;;;;;21.32;32.26;94927.88;6161068;28;103827;-69
2023/01/16 00:03:50;;;;;;;13.60;12.30;;;;;;;21.23;32.52;94921.72;6160590;28;102729;-69
2023/01/16 00:06:54;;;;;;;13.60;12.50;;;;;;;21.18;32.60;94909.34;6160224;28;103605;-70
2023/01/16 00:09:59;;;;;;;13.30;12.20;;;;;;;21.29;32.19;94921.28;6149448;28;104844;-70
2023/01/16 00:13:02;;;;;;;14.00;12.77;;;;;;;21.28;32.40;94919.72;6159085;28;103206;-70
2023/01/16 00:16:05;;;;;;;13.83;12.63;;;;;;;21.28;32.15;94925.06;6160774;28;103326;-70
2023/01/16 00:19:09;;;;;;;14.73;13.43;;;;;;;21.17;31.90;94907.75;6158957;28;103413;-70
2023/01/16 00:22:12;;;;;;;13.27;12.17;;;;;;;20.97;32.08;94869.06;6149016;28;103230;-69
2023/01/16 00:25:16;;;;;;;13.77;12.57;;;;;;;21.26;32.10;94921.91;6140747;28;103202;-69
2023/01/16 00:28:19;;;;;;;13.53;12.33;;;;;;;21.21;31.95;94914.06;6160471;28;103729;-71
2023/01/16 00:31:23;;;;;;;13.90;12.60;;;;;;;21.16;32.37;94903.50;6155771;28;103107;-69
2023/01/16 00:34:27;;;;;;;13.60;12.40;;;;;;;21.24;32.18;94910.00;6155117;28;103351;-69
2023/01/16 00:37:30;;;;;;;13.77;12.37;;;;;;;21.21;32.12;94898.09;6160891;28;103092;-69
2023/01/16 00:40:34;;;;;;;13.20;12.00;;;;;;;21.20;32.09;94891.97;6162121;28;103359;-70
2023/01/16 00:43:37;;;;;;;13.37;12.17;;;;;;;21.23;32.07;94892.47;6154777;28;106042;-70
2023/01/16 00:46:40;;;;;;;13.43;12.33;;;;;;;21.22;31.74;94886.34;6165086;28;104182;-70
2023/01/16 00:49:43;;;;;;;12.13;11.13;;;;;;;21.21;31.89;94888.22;6164065;28;102981;-70
2023/01/16 00:52:46;;;;;;;12.97;11.87;;;;;;;21.18;31.88;94872.88;6164197;28;103160;-70
2023/01/16 00:55:53;;;;;;;12.97;11.70;;;;;;;21.19;32.10;94871.78;6147479;28;104055;-70
2023/01/16 00:58:56;;;;;;;11.83;10.83;;;;;;;21.18;31.85;94877.41;6164255;28;104349;-70
2023/01/16 01:01:59;;;;;;;12.87;11.77;;;;;;;21.13;31.89;94864.22;6165094;28;105635;-70
2023/01/16 01:05:02;;;;;;;12.87;11.77;;;;;;;21.19;32.06;94871.78;6159416;28;103341;-70
2023/01/16 01:08:05;;;;;;;13.10;12.00;;;;;;;21.19;31.84;94871.00;6158210;28;106033;-70
2023/01/16 01:11:13;;;;;;;12.83;11.73;;;;;;;21.18;31.44;94878.19;6164455;28;103542;-70
2023/01/16 01:14:16;;;;;;;12.00;10.97;;;;;;;21.18;31.70;94872.09;6164400;28;103092;-71
2023/01/16 01:17:19;;;;;;;12.17;11.20;;;;;;;21.19;31.81;94878.97;6153550;28;103898;-70
2023/01/16 01:20:22;;;;;;;12.80;11.70;;;;;;;21.16;31.60;94874.25;6158587;28;104377;-70
2023/01/16 01:23:25;;;;;;;11.60;10.60;;;;;;;21.17;31.79;94881.13;6164087;28;102785;-70
2023/01/16 01:26:30;;;;;;;11.80;10.80;;;;;;;21.16;31.48;94871.59;6163738;28;103264;-70
2023/01/16 01:29:33;;;;;;;10.50;9.60;;;;;;;21.16;31.98;94874.25;6153985;28;103247;-69
2023/01/16 01:32:37;;;;;;;11.30;10.40;;;;;;;21.17;31.81;94878.47;6163012;28;103430;-69
2023/01/16 01:35:40;;;;;;;11.23;10.33;;;;;;;21.15;31.72;94872.66;6163946;28;103541;-69
2023/01/16 01:38:43;;;;;;;10.43;9.53;;;;;;;21.15;31.54;94856.72;6163659;28;103240;-70
2023/01/16 01:41:48;;;;;;;11.13;10.17;;;;;;;21.07;31.50;94846.81;6153577;28;103729;-70
2023/01/16 01:44:55;;;;;;;10.40;9.50;;;;;;;21.15;31.66;94854.03;6163070;28;103215;-70
2023/01/16 01:48:05;;;;;;;10.67;9.77;;;;;;;21.13;31.76;94837.59;6161585;28;103127;-70
2023/01/16 01:51:13;;;;;;;10.80;9.80;;;;;;;21.11;31.70;94835.25;6152525;28;103273;-70
2023/01/16 01:54:20;;;;;;;10.63;9.67;;;;;;;21.13;31.65;94835.72;6161390;28;103223;-70
2023/01/16 01:57:29;;;;;;;10.87;9.90;;;;;;;21.12;31.35;94834.16;6162613;28;103274;-70
2023/01/16 02:00:32;;;;;;;10.67;9.77;;;;;;;21.05;31.44;94825.84;6161687;28;103286;-70
2023/01/16 02:03:42;;;;;;;9.30;8.60;;;;;;;21.13;31.43;94830.41;6151195;28;104986;-70
2023/01/16 02:06:49;;;;;;;11.00;10.00;;;;;;;21.12;31.32;94828.84;6156017;28;102941;-70
2023/01/16 02:10:00;;;;;;;9.40;8.60;;;;;;;21.12;31.42;94828.84;6163250;28;102847;-70
2023/01/16 02:13:05;;;;;;;10.00;9.10;;;;;;;21.04;31.36;94802.16;6162016;28;103102;-70
2023/01/16 02:19:38;;;;;;;9.63;8.83;;;;;;;21.13;31.44;94818.97;6163068;28;104353;-71
2023/01/16 02:23:18;;;;;;;9.20;8.40;;;;;;;21.12;31.29;94810.22;6162119;28;105753;-71
2023/01/16 02:26:58;;;;;;;9.43;8.63;;;;;;;21.13;31.35;94816.31;6151496;28;104246;-70
2023/01/16 02:30:20;;;;;;;8.87;8.17;;;;;;;21.12;31.17;94807.56;6161724;28;103096;-70
2023/01/16 02:33:33;;;;;;;8.77;8.07;;;;;;;21.13;31.25;94808.34;6150983;28;102979;-70
2023/01/16 02:36:46;;;;;;;8.50;7.80;;;;;;;21.12;31.51;94812.09;6146045;28;103711;-70
2023/01/16 02:40:02;;;;;;;8.47;7.77;;;;;;;21.11;31.31;94802.53;6160143;28;103203;-70
2023/01/16 02:43:15;;;;;;;9.33;8.53;;;;;;;21.11;30.96;94798.00;6160938;28;103097;-70
2023/01/16 02:46:27;;;;;;;9.63;8.80;;;;;;;21.10;31.36;94798.31;6161434;28;102964;-70
2023/01/16 02:49:40;;;;;;;8.80;8.00;;;;;;;21.09;31.13;94786.88;6151744;28;104052;-70
2023/01/16 02:52:47;;;;;;;8.60;7.90;;;;;;;21.10;31.32;94798.31;6156734;28;103243;-70
2023/01/16 02:55:53;;;;;;;8.60;7.93;;;;;;;21.09;30.85;94802.06;6160696;28;103244;-70
2023/01/16 02:58:57;;;;;;;8.93;8.20;;;;;;;21.08;31.15;94793.28;6157025;28;104301;-70
2023/01/16 03:02:02;;;;;;;8.00;7.30;;;;;;;20.93;30.96;94764.38;6155216;28;103611;-70
2023/01/16 03:05:07;;;;;;;8.70;8.00;;;;;;;21.09;31.33;94784.22;6161096;28;104595;-70
2023/01/16 03:08:31;;;;;;;9.17;8.47;;;;;;;21.09;31.05;94778.13;6161230;28;103236;-69
2023/01/16 03:11:43;;;;;;;7.90;7.30;;;;;;;21.09;31.07;94772.78;6151207;28;103043;-70
2023/01/16 03:14:55;;;;;;;9.10;8.30;;;;;;;21.09;31.00;94776.25;6161179;28;102865;-69
2023/01/16 03:18:10;;;;;;;8.90;8.00;;;;;;;21.09;31.05;94773.56;6161182;28;103271;-68
2023/01/16 03:21:27;;;;;;;8.50;7.80;;;;;;;21.09;30.99;94770.13;6151289;28;103059;-68
2023/01/16 03:24:41;;;;;;;8.50;7.90;;;;;;;21.08;30.93;94755.25;6154076;28;106534;-69
2023/01/16 03:27:54;;;;;;;8.60;7.90;;;;;;;21.05;31.16;94750.56;6160649;28;103350;-69
2023/01/16 03:31:06;;;;;;;8.93;8.13;;;;;;;21.08;31.12;94748.06;6158358;28;104340;-70
2023/01/16 03:34:20;;;;;;;8.60;7.90;;;;;;;21.08;31.23;94749.94;6150854;28;103217;-69
2023/01/16 03:37:27;;;;;;;8.53;7.90;;;;;;;21.07;30.92;94745.72;6161147;28;103387;-70
2023/01/16 03:40:36;;;;;;;7.83;7.23;;;;;;;21.05;31.36;94740.69;6161079;28;103074;-70
2023/01/16 03:43:39;;;;;;;8.27;7.63;;;;;;;21.01;31.22;94725.63;6160536;28;103300;-70
2023/01/16 03:46:48;;;;;;;7.40;6.80;;;;;;;21.06;30.64;94728.19;6151529;28;104549;-70
2023/01/16 03:49:55;;;;;;;7.63;7.03;;;;;;;21.09;30.94;94723.03;6161181;28;103075;-69
2023/01/16 03:53:08;;;;;;;7.87;7.17;;;;;;;21.07;31.00;94716.44;6160494;28;103422;-68
2023/01/16 03:56:16;;;;;;;8.40;7.60;;;;;;;21.09;31.00;94717.72;6151198;28;103979;-69
2023/01/16 03:59:25;;;;;;;8.00;7.30;;;;;;;21.08;30.91;94710.03;6158599;28;103401;-69
2023/01/16 04:02:33;;;;;;;7.13;6.53;;;;;;;21.07;30.94;94703.16;6159752;28;103086;-68
2023/01/16 04:05:43;;;;;;;7.63;7.03;;;;;;;20.93;30.76;94682.72;6159441;28;103039;-69
2023/01/16 04:08:48;;;;;;;8.23;7.60;;;;;;;20.98;30.72;94681.00;6148270;28;103680;-69
2023/01/16 04:11:53;;;;;;;7.20;6.60;;;;;;;21.09;31.19;94711.59;6160500;28;103479;-67
2023/01/16 04:14:59;;;;;;;7.80;7.00;;;;;;;21.12;30.75;94708.31;6163685;28;103101;-67
2023/01/16 04:18:02;;;;;;;7.80;7.20;;;;;;;21.14;30.76;94714.13;6168855;28;103026;-67
2023/01/16 04:21:07;;;;;;;7.97;7.37;;;;;;;21.13;31.03;94705.34;6158228;28;104426;-67
2023/01/16 04:24:12;;;;;;;6.97;6.37;;;;;;;21.15;30.72;94697.06;6169186;28;104040;-68
2023/01/16 04:27:15;;;;;;;12.07;8.20;;;;;;;21.15;30.70;94697.06;6168602;28;103640;-68
2023/01/16 04:30:18;;;;;;;7.33;6.73;;;;;;;21.15;30.59;94710.38;6156860;28;103790;-66
2023/01/16 04:33:21;;;;;;;7.47;6.77;;;;;;;21.14;31.13;94711.47;6167816;28;103051;-67
2023/01/16 04:36:24;;;;;;;7.27;6.67;;;;;;;21.14;30.69;94698.16;6170406;28;103095;-66
2023/01/16 04:39:29;;;;;;;7.93;7.33;;;;;;;21.11;30.78;94688.13;6167763;28;103437;-67
2023/01/16 04:42:32;;;;;;;7.37;6.77;;;;;;;21.11;30.80;94690.78;6158108;28;103863;-68
2023/01/16 04:45:35;;;;;;;8.60;7.90;;;;;;;21.07;30.89;94682.66;6168970;28;103414;-71
2023/01/16 04:48:38;;;;;;;8.10;7.40;;;;;;;21.02;31.17;94676.66;6169910;28;104235;-71
2023/01/16 04:51:41;;;;;;;7.90;7.20;;;;;;;21.09;30.94;94687.66;6169349;28;103354;-68
2023/01/16 04:54:45;;;;;;;7.47;6.87;;;;;;;21.05;30.89;94684.84;6157619;28;103195;-68
2023/01/16 04:57:48;;;;;;;8.13;7.43;;;;;;;21.10;30.73;94686.56;6169265;28;103746;-67
2023/01/16 05:00:54;;;;;;;7.80;7.20;;;;;;;21.08;30.74;94686.88;6163734;28;103305;-69
2023/01/16 05:03:57;;;;;;;11.90;8.00;;;;;;;21.12;30.90;94687.81;6161231;28;103523;-68
2023/01/16 05:07:00;;;;;;;9.20;8.30;;;;;;;21.18;31.61;94686.59;6162993;28;103181;-69
2023/01/16 05:10:05;;;;;;;9.47;8.67;;;;;;;21.23;32.03;94684.91;6168660;28;103072;-67
2023/01/16 05:13:08;;;;;;;15.23;13.77;;;;;;;20.67;29.42;94671.19;6163984;28;103293;-67
2023/01/16 05:16:11;;;;;;;16.77;15.27;;;;;;;20.26;29.90;94677.50;6155633;28;103291;-65
2023/01/16 05:19:14;;;;;;;13.63;12.50;;;;;;;20.67;31.60;94679.16;6158688;28;102828;-67
2023/01/16 05:22:17;;;;;;;12.63;11.37;;;;;;;20.80;31.04;94659.66;6166602;28;103029;-67
2023/01/16 05:25:22;;;;;;;13.30;12.00;;;;;;;21.00;31.03;94660.19;6167629;28;104112;-67
2023/01/16 05:28:25;;;;;;;13.80;12.40;;;;;;;21.07;31.38;94657.91;6155038;28;103696;-67
2023/01/16 05:31:28;;;;;;;14.03;10.77;;;;;;;21.13;31.55;94652.13;6163737;28;103376;-68
2023/01/16 05:34:31;;;;;;;12.20;10.90;;;;;;;21.14;31.13;94655.59;6165054;28;103099;-68
2023/01/16 05:37:34;;;;;;;11.93;10.83;;;;;;;21.18;31.64;94653.91;6163286;28;103038;-67
2023/01/16 05:40:38;;;;;;;12.33;10.93;;;;;;;21.13;31.77;94641.50;6154535;28;104039;-67
2023/01/16 05:43:42;;;;;;;12.20;11.00;;;;;;;21.22;31.81;94649.53;6163132;28;107225;-66
2023/01/16 05:46:45;;;;;;;12.50;10.70;;;;;;;21.23;31.62;94639.66;6163216;28;103210;-68
2023/01/16 05:49:48;;;;;;;11.27;10.00;;;;;;;21.23;31.87;94640.44;6154747;28;106398;-66
2023/01/16 05:52:51;;;;;;;11.17;10.17;;;;;;;21.26;31.95;94639.03;6162718;28;103079;-67
2023/01/16 05:55:56;;;;;;;11.40;10.30;;;;;;;21.26;32.21;94647.81;6164635;28;104022;-68
2023/01/16 05:58:59;;;;;;;11.23;10.23;;;;;;;21.26;32.06;94647.81;6163573;28;103277;-67
2023/01/16 06:02:02;;;;;;;12.13;11.03;;;;;;;21.26;32.10;94652.34;6152802;28;103204;-68
2023/01/16 06:05:06;;;;;;;12.40;11.40;;;;;;;21.26;31.95;94655.00;6164179;28;103460;-69
2023/01/16 06:08:09;;;;;;;11.73;10.60;;;;;;;21.27;31.84;94640.59;6163862;28;104111;-68
2023/01/16 06:11:14;;;;;;;11.47;10.27;;;;;;;21.28;31.85;94642.94;6163871;28;103217;-69
2023/01/16 06:14:17;;;;;;;12.23;11.00;;;;;;;21.28;31.87;94637.63;6153392;28;102758;-68
2023/01/16 06:17:20;;;;;;;12.37;10.70;;;;;;;21.29;31.49;94633.88;6163775;28;103096;-69
2023/01/16 06:20:24;;;;;;;11.63;10.30;;;;;;;21.26;31.74;94631.84;6163381;28;102934;-70
2023/01/16 06:23:27;;;;;;;11.47;10.37;;;;;;;21.19;32.23;94623.53;6158709;28;103867;-69
2023/01/16 06:26:31;;;;;;;12.83;11.60;;;;;;;21.28;32.10;94632.31;6158396;28;103024;-69
2023/01/16 06:29:34;;;;;;;12.37;11.17;;;;;;;21.28;32.10;94637.63;6163620;28;104160;-69
2023/01/16 06:32:37;;;;;;;12.30;11.10;;;;;;;21.21;31.90;94632.78;6162841;28;104129;-68
2023/01/16 06:35:40;;;;;;;10.63;9.73;;;;;;;21.28;32.10;94642.94;6152038;28;103021;-67
2023/01/16 06:38:43;;;;;;;12.03;10.80;;;;;;;21.22;31.71;94628.22;6163217;28;103206;-69
2023/01/16 06:41:48;;;;;;;12.53;11.33;;;;;;;21.29;32.14;94649.06;6163164;28;103152;-67
2023/01/16 06:44:51;;;;;;;12.63;11.50;;;;;;;21.27;31.70;94656.56;6163571;28;103440;-68
2023/01/16 06:47:54;;;;;;;12.20;11.10;;;;;;;21.27;32.03;94661.88;6153279;28;107520;-68
2023/01/16 06:50:58;;;;;;;11.90;10.80;;;;;;;21.24;31.75;94651.88;6162779;28;104141;-68
2023/01/16 06:54:02;;;;;;;12.43;11.33;;;;;;;21.28;31.99;94656.25;6162944;28;103731;-69
2023/01/16 06:57:07;;;;;;;11.50;10.40;;;;;;;21.28;31.43;94642.94;6161700;28;104222;-66
2023/01/16 07:00:11;;;;;;;11.70;10.50;;;;;;;21.28;31.61;94621.66;6154368;28;103199;-68
2023/01/16 07:03:14;;;;;;;12.67;11.47;;;;;;;21.38;31.53;94625.91;6161919;28;103219;-68
2023/01/16 07:06:17;;;;;;;12.17;11.07;;;;;;;21.40;31.24;94639.69;6162265;28;104408;-68
2023/01/16 07:09:23;;;;;;;11.70;10.60;;;;;;;21.42;31.39;94643.59;6152513;28;103113;-69
2023/01/16 07:12:28;;;;;;;12.30;11.10;;;;;;;21.37;31.80;94645.66;6161763;28;103051;-68
2023/01/16 07:25:36;;;;;;;13.90;12.60;;;;;;;21.41;31.27;94631.41;6163187;28;104154;-67
2023/01/16 07:28:40;;;;;;;14.73;13.27;;;;;;;21.41;31.47;94642.03;6162052;28;103205;-66
2023/01/16 07:31:44;;;;;;;13.97;12.67;;;;;;;21.42;31.39;94630.31;6156750;28;105052;-69
2023/01/16 07:34:47;;;;;;;14.20;12.87;;;;;;;21.45;31.75;94631.56;6156240;28;105830;-69
2023/01/16 07:37:56;;;;;;;15.87;14.33;;;;;;;21.43;31.52;94615.88;6162119;28;103481;-70
2023/01/16 07:40:59;;;;;;;13.97;12.60;;;;;;;21.42;31.65;94627.63;6162561;28;104042;-69
2023/01/16 07:44:04;;;;;;;14.07;12.67;;;;;;;21.36;31.99;94607.59;6151558;28;103601;-68
2023/01/16 07:47:07;;;;;;;14.97;13.67;;;;;;;21.40;31.52;94591.78;6162149;28;103149;-69
2023/01/16 07:50:11;;;;;;;14.03;12.73;;;;;;;21.41;31.77;94604.78;6160769;28;103049;-69
2023/01/16 07:53:14;;;;;;;14.30;13.00;;;;;;;21.40;31.75;94597.88;6161967;28;103034;-69
2023/01/16 07:56:17;;;;;;;15.00;13.50;;;;;;;21.41;31.49;94609.31;6150884;28;103128;-70
2023/01/16 07:59:21;;;;;;;14.67;13.33;;;;;;;21.41;31.45;94604.00;6161756;28;104119;-70
2023/01/16 08:02:24;;;;;;;14.17;12.87;;;;;;;21.40;31.91;94597.09;6162093;28;104224;-70
2023/01/16 08:05:28;;;;;;;14.43;13.03;;;;;;;21.36;31.78;94580.97;6155911;28;104229;-69
2023/01/16 08:08:32;;;;;;;14.87;13.57;;;;;;;21.41;31.35;94588.03;6156260;28;102888;-70
2023/01/16 08:11:38;;;;;;;16.17;14.77;;;;;;;21.26;31.85;94553.88;6161937;28;103321;-69
2023/01/16 08:14:42;;;;;;;15.20;13.87;;;;;;;21.44;31.16;94577.53;6161581;28;103195;-69
2023/01/16 08:17:46;;;;;;;16.23;14.63;;;;;;;21.44;31.60;94568.75;6151470;28;103896;-69
2023/01/16 08:20:49;;;;;;;16.03;14.63;;;;;;;21.45;31.15;94573.78;6161533;28;102954;-69
2023/01/16 08:23:52;;;;;;;16.03;14.53;;;;;;;21.42;31.35;94570.97;6161680;28;103254;-70
2023/01/16 08:26:55;;;;;;;15.43;14.03;;;;;;;21.46;31.14;94585.19;6161989;28;105470;-70
2023/01/16 08:30:00;;;;;;;16.33;14.73;;;;;;;21.41;31.50;94596.00;6151820;28;105798;-69
2023/01/16 08:33:03;;;;;;;16.47;14.97;;;;;;;21.45;31.08;94595.06;6162057;28;104907;-70
2023/01/16 08:36:09;;;;;;;16.30;14.80;;;;;;;21.45;31.75;94586.28;6160348;28;104186;-71
2023/01/16 08:39:13;;;;;;;17.43;15.73;;;;;;;21.47;31.08;94584.88;6161975;28;102846;-70
2023/01/16 08:52:19;;;;;;;16.90;15.33;;;;;;;21.48;31.16;94535.88;6150233;28;102987;-69
2023/01/16 08:55:22;;;;;;;16.50;14.90;;;;;;;21.48;31.48;94546.53;6160702;28;103230;-70
2023/01/16 08:58:25;;;;;;;17.50;15.87;;;;;;;21.48;31.40;94549.19;6160784;28;103015;-70
2023/01/16 09:01:30;;;;;;;17.80;16.20;;;;;;;21.49;31.41;94547.31;6161805;28;103469;-70
2023/01/16 09:04:36;;;;;;;17.93;16.13;;;;;;;21.47;31.75;94547.63;6154392;28;103178;-70
2023/01/16 09:07:39;;;;;;;18.80;17.00;;;;;;;21.47;31.49;94542.28;6164757;28;104204;-70
2023/01/16 09:13:48;;;;;;;18.10;16.40;;;;;;;21.47;31.50;94534.31;6164983;28;103116;-72
2023/01/16 09:14:04;;;;;;;17.43;15.73;;;;;;;21.46;31.76;94527.41;6159399;28;103941;-69
2023/01/16 09:17:20;;;;;;;17.43;15.67;;;;;;;21.46;31.85;94518.66;6164619;28;104111;-70
2023/01/16 09:20:23;;;;;;;17.60;16.03;;;;;;;21.48;31.60;94527.09;6166033;28;103595;-70
2023/01/16 09:23:26;;;;;;;17.33;15.63;;;;;;;21.49;31.62;94515.34;6165256;28;103223;-70
2023/01/16 09:26:30;;;;;;;18.73;15.17;;;;;;;21.49;31.94;94512.69;6153640;28;103406;-70
2023/01/16 09:29:33;;;;;;;23.07;21.10;;;;;;;21.45;31.96;94499.25;6165135;28;103383;-70
2023/01/16 09:32:37;;;;;;;26.73;24.43;;;;;;;21.48;31.92;94495.94;6164904;28;103228;-70
2023/01/16 09:35:42;;;;;;;32.17;29.47;;;;;;;21.49;32.45;94488.72;6163676;28;103280;-70
2023/01/16 09:38:45;;;;;;;31.17;28.47;;;;;;;21.48;32.47;94485.28;6152423;28;103036;-70
2023/01/16 09:45:23;;;;;;;28.23;25.93;;;;;;;21.48;32.67;94489.84;6124075;28;103165;-69
2023/01/16 09:48:31;;;;;;;27.67;25.37;;;;;;;21.48;32.73;94481.84;6154398;28;104028;-70
2023/01/16 09:51:39;;;;;;;29.43;26.83;;;;;;;21.49;32.50;94473.53;6164013;28;103002;-69
2023/01/16 10:01:40;;;;;;;24.90;22.70;;;;;;;21.47;32.37;94453.66;6154802;28;104087;-70
2023/01/16 10:04:46;;;;;;;25.40;23.10;;;;;;;21.48;32.19;94450.69;6163073;28;103331;-71
2023/01/16 10:07:54;;;;;;;24.20;22.20;;;;;;;21.46;32.57;94444.91;6163957;28;102942;-70
2023/01/16 10:11:07;;;;;;;25.20;22.90;;;;;;;21.39;32.33;94427.84;6155349;28;103843;-68
2023/01/16 10:14:23;;;;;;;23.00;20.90;;;;;;;21.46;32.36;94439.56;6162891;28;103182;-69
2023/01/16 10:17:35;;;;;;;23.43;21.50;;;;;;;21.46;32.18;94425.47;6163914;28;103409;-69
2023/01/16 10:21:05;;;;;;;22.23;20.27;;;;;;;21.37;32.48;94409.53;6163502;28;103483;-69
2023/01/16 10:24:19;;;;;;;22.00;20.10;;;;;;;21.57;32.56;94408.09;6153568;28;103281;-68
2023/01/16 10:27:34;;;;;;;21.83;19.80;;;;;;;21.58;32.15;94406.22;6162974;28;103062;-68
2023/01/16 10:30:44;;;;;;;20.53;18.67;;;;;;;21.65;32.19;94399.28;6163211;28;103097;-67
2023/01/16 10:33:55;;;;;;;19.10;17.43;;;;;;;21.66;32.11;94394.72;6152873;28;103016;-67
2023/01/16 10:37:01;;;;;;;20.67;18.63;;;;;;;21.63;32.12;94382.06;6163279;28;103898;-69
2023/01/16 10:40:14;;;;;;;18.47;16.87;;;;;;;21.61;31.71;94362.97;6162541;28;103041;-67
2023/01/16 10:50:07;;;;;;;18.50;16.80;;;;;;;21.70;31.90;94363.72;6162817;28;103416;-68
2023/01/16 10:53:12;;;;;;;18.50;16.80;;;;;;;21.69;31.67;94357.63;6162711;28;103229;-68
2023/01/16 10:56:16;;;;;;;17.90;16.23;;;;;;;21.70;31.71;94361.06;6156702;28;103486;-67
2023/01/16 10:59:20;;;;;;;16.37;15.00;;;;;;;21.62;31.38;94329.91;6159263;28;103147;-68
2023/01/16 11:02:29;;;;;;;17.03;15.43;;;;;;;21.70;31.55;94335.22;6162337;28;103342;-69
2023/01/16 11:05:34;;;;;;;16.00;14.60;;;;;;;21.68;31.66;94329.44;6162860;28;103041;-68
2023/01/16 11:08:40;;;;;;;17.43;15.83;;;;;;;21.72;31.76;94318.91;6152004;28;103279;-68
2023/01/16 11:18:38;;;;;;;16.00;14.50;;;;;;;21.74;31.27;94292.75;6157015;28;103258;-67
2023/01/16 11:21:44;;;;;;;16.53;14.97;;;;;;;21.70;31.37;94294.50;6157494;28;103266;-68
2023/01/16 11:24:48;;;;;;;15.20;13.90;;;;;;;21.73;31.45;94293.84;6161272;28;104115;-68
2023/01/16 11:27:53;;;;;;;16.10;14.70;;;;;;;21.72;31.47;94287.75;6161975;28;103228;-68
2023/01/16 11:30:59;;;;;;;14.93;13.63;;;;;;;21.73;31.14;94288.53;6152416;28;103256;-67
2023/01/16 11:34:04;;;;;;;15.80;14.20;;;;;;;21.72;31.64;94292.28;6161803;28;104054;-68
2023/01/16 11:37:10;;;;;;;14.53;13.23;;;;;;;21.74;31.61;94292.75;6162516;28;103896;-68
2023/01/16 11:40:21;;;;;;;13.97;12.77;;;;;;;21.73;31.68;94278.66;6161606;28;106002;-68
2023/01/16 11:46:50;;;;;;;14.00;12.80;;;;;;;21.76;31.62;94279.88;6160349;28;102816;-67
2023/01/16 11:49:54;;;;;;;14.33;13.13;;;;;;;21.73;31.34;94269.88;6161658;28;103201;-67
2023/01/16 11:52:57;;;;;;;15.07;13.67;;;;;;;21.78;31.53;94264.38;6157406;28;103966;-67
2023/01/16 11:56:22;;;;;;;15.93;14.53;;;;;;;21.79;31.59;94263.25;6156891;28;103128;-68
2023/01/16 11:59:41;;;;;;;14.57;13.13;;;;;;;21.80;31.06;94273.59;6161429;28;103158;-68
2023/01/16 12:02:58;;;;;;;15.50;14.20;;;;;;;21.72;31.44;94223.84;6161531;28;103130;-68
2023/01/16 12:06:12;;;;;;;13.23;12.13;;;;;;;21.83;31.38;94237.56;6150889;28;103184;-68
2023/01/16 12:09:26;;;;;;;13.87;12.47;;;;;;;21.84;31.04;94243.66;6161404;28;103164;-68
2023/01/16 12:16:13;;;;;;;14.23;12.93;;;;;;;21.85;31.03;94239.94;6152264;28;103809;-68
2023/01/16 12:19:47;;;;;;;13.50;12.30;;;;;;;21.84;31.53;94225.81;6160511;28;103083;-67
2023/01/16 12:23:13;;;;;;;12.73;11.43;;;;;;;21.81;31.37;94226.44;6161116;28;103101;-67
2023/01/16 12:26:22;;;;;;;13.27;12.00;;;;;;;21.69;31.26;94173.91;6160845;28;103105;-67
2023/01/16 12:29:37;;;;;;;13.00;11.90;;;;;;;21.80;31.15;94190.25;6154497;28;103394;-67
2023/01/16 12:32:53;;;;;;;13.13;12.00;;;;;;;21.78;31.37;94198.56;6161104;28;103992;-67
2023/01/16 12:36:04;;;;;;;13.57;12.37;;;;;;;21.72;31.52;94165.25;6162434;28;103099;-68
2023/01/16 12:39:19;;;;;;;12.00;11.00;;;;;;;21.79;31.48;94167.38;6154784;28;103081;-68
2023/01/16 12:46:01;;;;;;;12.70;11.57;;;;;;;21.80;31.20;94174.28;6164863;28;103146;-69
2023/01/16 12:49:24;;;;;;;12.17;11.07;;;;;;;21.79;31.39;94168.16;6163186;28;103183;-67
2023/01/16 12:52:43;;;;;;;12.50;11.30;;;;;;;21.70;31.43;94153.38;6158947;28;103297;-68
2023/01/16 12:55:55;;;;;;;12.50;11.40;;;;;;;21.77;31.13;94154.41;6164695;28;102989;-68
2023/01/16 12:59:17;;;;;;;11.50;10.50;;;;;;;21.78;31.65;94166.59;6164785;28;103284;-68
2023/01/16 13:02:34;;;;;;;11.90;10.70;;;;;;;21.76;31.36;94163.50;6153635;28;103237;-68
2023/01/16 13:05:40;;;;;;;11.30;10.30;;;;;;;21.65;31.28;94140.22;6165272;28;104271;-69
2023/01/16 13:08:50;;;;;;;12.10;11.00;;;;;;;21.76;31.60;94141.41;6164676;28;104313;-69
2023/01/16 13:15:29;;;;;;;11.63;10.63;;;;;;;21.76;31.12;94133.41;6160620;28;103402;-67
2023/01/16 13:18:39;;;;;;;11.47;10.37;;;;;;;21.74;31.63;94128.44;6164677;28;103129;-68
2023/01/16 13:21:55;;;;;;;11.47;10.37;;;;;;;21.72;31.08;94105.91;6164699;28;103297;-67
2023/01/16 13:25:03;;;;;;;11.23;10.20;;;;;;;21.57;31.40;94099.28;6152868;28;103090;-68
2023/01/16 13:28:17;;;;;;;10.90;9.90;;;;;;;21.74;31.40;94119.66;6164428;28;103048;-67
2023/01/16 13:31:28;;;;;;;11.97;10.97;;;;;;;21.74;31.23;94090.38;6164048;28;103190;-68
2023/01/16 13:34:35;;;;;;;11.10;10.10;;;;;;;21.71;31.56;94088.38;6161489;28;103028;-67
2023/01/16 13:37:57;;;;;;;11.20;10.20;;;;;;;21.73;31.58;94094.13;6157996;28;103281;-67
2023/01/16 13:41:17;;;;;;;11.03;9.93;;;;;;;21.71;31.34;94096.34;6163613;28;103198;-68
2023/01/16 13:47:49;;;;;;;9.97;9.07;;;;;;;21.71;31.16;94091.03;6152865;28;103266;-68
2023/01/16 13:50:59;;;;;;;10.73;9.87;;;;;;;21.69;31.16;94078.03;6163778;28;103018;-68
2023/01/16 13:54:04;;;;;;;10.90;10.00;;;;;;;21.69;31.21;94094.00;6163917;28;104236;-68
2023/01/16 13:57:13;;;;;;;10.60;9.70;;;;;;;21.71;31.20;94088.38;6162322;28;106476;-67
2023/01/16 14:00:20;;;;;;;9.67;8.80;;;;;;;21.70;31.16;94052.19;6156553;28;104009;-68
2023/01/16 14:03:25;;;;;;;10.20;9.30;;;;;;;21.69;31.46;94042.66;6163196;28;103165;-68
2023/01/16 14:06:43;;;;;;;10.40;9.50;;;;;;;21.64;31.52;94035.63;6163593;28;103000;-67
2023/01/16 14:10:21;;;;;;;9.57;8.73;;;;;;;21.67;31.50;94052.81;6153059;28;104030;-67
2023/01/16 14:13:32;;;;;;;9.90;9.00;;;;;;;21.65;31.63;94055.81;6153963;28;103242;-68
2023/01/16 14:16:38;;;;;;;9.70;8.80;;;;;;;21.66;31.20;94053.94;6162912;28;103284;-68
2023/01/16 14:19:51;;;;;;;9.93;9.03;;;;;;;21.63;31.17;94058.03;6163544;28;105435;-69
2023/01/16 14:26:20;;;;;;;9.07;8.27;;;;;;;21.65;31.64;94060.34;6162897;28;103234;-68
2023/01/16 14:29:29;;;;;;;9.37;8.57;;;;;;;21.65;31.12;94077.09;6161820;28;103245;-68
2023/01/16 14:32:35;;;;;;;9.20;8.40;;;;;;;21.65;31.57;94073.66;6153065;28;104481;-69
2023/01/16 14:35:50;;;;;;;9.37;8.53;;;;;;;21.65;31.58;94063.03;6163349;28;103993;-68
2023/01/16 14:38:54;;;;;;;9.70;8.90;;;;;;;21.65;31.36;94081.66;6162490;28;103787;-68
2023/01/16 14:55:45;;;;;;;9.83;9.03;;;;;;;21.65;31.31;94055.03;6152667;28;104004;-68
2023/01/16 14:58:53;;;;;;;8.90;8.20;;;;;;;21.64;31.47;94056.13;6162217;28;106949;-68
2023/01/16 15:02:20;;;;;;;9.50;8.70;;;;;;;21.62;31.14;94077.75;6161468;28;103288;-68
2023/01/16 15:05:49;;;;;;;10.33;9.43;;;;;;;21.61;31.70;94076.22;6158990;28;102890;-66
2023/01/16 15:08:55;;;;;;;9.63;8.80;;;;;;;21.62;31.56;94069.00;6156931;28;103255;-68
2023/01/16 15:12:00;;;;;;;9.70;8.70;;;;;;;21.55;31.27;94060.78;6162897;28;104815;-67
2023/01/16 15:15:04;;;;;;;8.60;7.90;;;;;;;21.61;31.39;94059.47;6161861;28;103363;-68
2023/01/16 15:25:05;;;;;;;9.20;8.40;;;;;;;21.55;31.26;94034.16;6162212;28;103353;-68
2023/01/16 15:28:18;;;;;;;9.67;8.77;;;;;;;21.56;31.20;94100.38;6157803;28;104287;-67
2023/01/16 15:31:26;;;;;;;7.70;7.10;;;;;;;21.55;31.47;94029.59;6157243;28;103957;-68
2023/01/16 15:34:31;;;;;;;9.27;8.47;;;;;;;21.55;31.59;94066.09;6161548;28;104255;-68
2023/01/16 15:37:34;;;;;;;8.63;7.90;;;;;;;21.56;31.56;94057.00;6161912;28;103518;-68
2023/01/16 15:40:37;;;;;;;9.70;8.90;;;;;;;21.46;31.69;94048.31;6151110;28;103265;-68
2023/01/16 15:47:55;;;;;;;9.07;8.17;;;;;;;21.52;31.40;94068.31;6109921;28;103809;-68
2023/01/16 15:51:01;;;;;;;9.60;8.80;;;;;;;21.52;31.38;94073.63;6112701;28;103796;-66